createdAt,value
2018-10-12T00:00:05.006Z,19.206238
2018-10-12T00:00:34.498Z,19.206238
2018-10-12T00:01:03.994Z,19.206238
2018-10-12T00:01:33.490Z,19.246521
2018-10-12T00:02:02.987Z,19.256592
2018-10-12T00:02:32.491Z,19.306946
2018-10-12T00:03:01.997Z,19.317017
2018-10-12T00:03:31.542Z,19.367371
2018-10-12T00:04:01.035Z,19.387512
2018-10-12T00:04:30.521Z,19.397583
2018-10-12T00:05:00.019Z,19.397583
2018-10-12T00:05:29.508Z,19.3573
2018-10-12T00:05:59.004Z,19.256592
2018-10-12T00:06:28.500Z,19.256592
2018-10-12T00:06:58.007Z,19.216309
2018-10-12T00:07:27.528Z,19.216309
2018-10-12T00:07:57.020Z,19.186096
2018-10-12T00:08:27.566Z,19.216309
2018-10-12T00:08:58.050Z,19.276733
2018-10-12T00:09:27.546Z,19.286804
2018-10-12T00:09:58.034Z,19.286804
2018-10-12T00:10:27.530Z,19.327087
2018-10-12T00:10:57.036Z,19.3573
2018-10-12T00:11:27.531Z,19.327087
2018-10-12T00:11:57.047Z,19.317017
2018-10-12T00:12:26.551Z,19.317017
2018-10-12T00:12:56.062Z,19.317017
2018-10-12T00:13:25.562Z,19.317017
2018-10-12T00:13:55.115Z,19.317017
2018-10-12T00:14:24.606Z,19.306946
2018-10-12T00:14:54.100Z,19.3573
2018-10-12T00:15:23.606Z,19.387512
2018-10-12T00:15:53.130Z,19.327087
2018-10-12T00:16:22.660Z,19.276733
2018-10-12T00:16:52.159Z,19.226379
2018-10-12T00:17:21.650Z,19.226379
2018-10-12T00:17:51.173Z,19.246521
2018-10-12T00:18:20.675Z,19.256592
2018-10-12T00:18:50.213Z,19.276733
2018-10-12T00:19:19.710Z,19.246521
2018-10-12T00:19:49.229Z,19.206238
2018-10-12T00:20:18.732Z,19.186096
2018-10-12T00:20:48.247Z,19.176025
2018-10-12T00:21:17.739Z,19.176025
2018-10-12T00:21:47.237Z,19.125671
2018-10-12T00:22:16.762Z,19.065247
2018-10-12T00:22:46.248Z,19.065247
2018-10-12T00:23:15.750Z,19.10553
2018-10-12T00:23:45.354Z,19.125671
2018-10-12T00:24:14.845Z,19.135742
2018-10-12T00:24:44.330Z,19.075317
2018-10-12T00:25:13.842Z,19.055176
2018-10-12T00:25:43.338Z,19.004822
2018-10-12T00:26:12.829Z,18.994751
2018-10-12T00:26:42.342Z,18.98468
2018-10-12T00:27:11.839Z,18.98468
2018-10-12T00:27:41.330Z,18.98468
2018-10-12T00:28:10.825Z,19.004822
2018-10-12T00:28:40.316Z,19.004822
2018-10-12T00:29:09.870Z,18.994751
2018-10-12T00:29:39.389Z,18.954468
2018-10-12T00:30:08.880Z,19.004822
2018-10-12T00:30:38.407Z,19.024963
2018-10-12T00:31:07.907Z,19.004822
2018-10-12T00:31:37.403Z,18.954468
2018-10-12T00:32:06.898Z,18.954468
2018-10-12T00:32:36.396Z,18.954468
2018-10-12T00:33:05.925Z,18.98468
2018-10-12T00:33:35.425Z,18.98468
2018-10-12T00:34:04.977Z,18.954468
2018-10-12T00:34:34.467Z,18.944397
2018-10-12T00:35:03.961Z,18.924255
2018-10-12T00:35:33.459Z,18.823547
2018-10-12T00:36:02.954Z,18.813477
2018-10-12T00:36:32.450Z,18.843689
2018-10-12T00:37:01.959Z,18.843689
2018-10-12T00:37:31.450Z,18.783264
2018-10-12T00:38:00.950Z,18.763123
2018-10-12T00:38:30.450Z,18.803406
2018-10-12T00:38:59.981Z,18.843689
2018-10-12T00:39:29.528Z,18.823547
2018-10-12T00:39:59.020Z,18.813477
2018-10-12T00:40:28.514Z,18.85376
2018-10-12T00:40:58.006Z,18.85376
2018-10-12T00:41:28.523Z,18.843689
2018-10-12T00:41:58.054Z,18.873901
2018-10-12T00:42:27.562Z,18.85376
2018-10-12T00:42:57.052Z,18.883972
2018-10-12T00:43:26.550Z,18.904114
2018-10-12T00:43:56.041Z,18.924255
2018-10-12T00:44:25.578Z,18.924255
2018-10-12T00:44:55.081Z,18.944397
2018-10-12T00:45:24.573Z,18.924255
2018-10-12T00:45:54.084Z,18.944397
2018-10-12T00:46:24.559Z,18.98468
2018-10-12T00:46:54.049Z,19.024963
2018-10-12T00:47:23.545Z,18.98468
2018-10-12T00:47:53.048Z,18.904114
2018-10-12T00:48:22.579Z,18.883972
2018-10-12T00:48:52.073Z,18.914185
2018-10-12T00:49:21.586Z,18.924255
2018-10-12T00:49:51.303Z,18.98468
2018-10-12T00:50:20.643Z,18.98468
2018-10-12T00:50:50.153Z,18.944397
2018-10-12T00:51:19.658Z,18.914185
2018-10-12T00:51:49.157Z,18.924255
2018-10-12T00:52:18.641Z,18.924255
2018-10-12T00:52:48.153Z,18.924255
2018-10-12T00:53:17.643Z,18.924255
2018-10-12T00:53:47.139Z,18.914185
2018-10-12T00:54:16.634Z,18.904114
2018-10-12T00:54:46.178Z,18.904114
2018-10-12T00:55:16.675Z,18.883972
2018-10-12T00:55:46.185Z,18.873901
2018-10-12T00:56:15.722Z,18.904114
2018-10-12T00:56:45.214Z,18.944397
2018-10-12T00:57:14.714Z,18.914185
2018-10-12T00:57:44.211Z,18.904114
2018-10-12T00:58:13.702Z,18.883972
2018-10-12T00:58:43.193Z,18.873901
2018-10-12T00:59:12.689Z,18.873901
2018-10-12T00:59:43.230Z,18.914185
2018-10-12T01:00:12.768Z,18.954468
2018-10-12T01:00:42.264Z,18.954468
2018-10-12T01:01:11.801Z,18.954468
2018-10-12T01:01:41.269Z,18.994751
2018-10-12T01:02:10.763Z,18.954468
2018-10-12T01:02:40.266Z,18.924255
2018-10-12T01:03:09.791Z,18.904114
2018-10-12T01:03:39.281Z,18.883972
2018-10-12T01:04:08.798Z,18.843689
2018-10-12T01:04:38.280Z,18.873901
2018-10-12T01:05:07.837Z,18.843689
2018-10-12T01:05:37.349Z,18.753052
2018-10-12T01:06:06.843Z,18.692627
2018-10-12T01:06:36.396Z,18.692627
2018-10-12T01:07:05.844Z,18.662415
2018-10-12T01:07:35.351Z,18.672485
2018-10-12T01:08:04.844Z,18.73291
2018-10-12T01:08:34.342Z,18.763123
2018-10-12T01:09:03.845Z,18.783264
2018-10-12T01:09:33.335Z,18.803406
2018-10-12T01:10:02.825Z,18.73291
2018-10-12T01:10:32.378Z,18.692627
2018-10-12T01:11:01.900Z,18.622131
2018-10-12T01:11:31.392Z,18.652344
2018-10-12T01:12:00.916Z,18.662415
2018-10-12T01:12:30.377Z,18.632202
2018-10-12T01:12:59.874Z,18.622131
2018-10-12T01:13:29.367Z,18.652344
2018-10-12T01:13:58.856Z,18.662415
2018-10-12T01:14:28.347Z,18.632202
2018-10-12T01:14:57.832Z,18.60199
2018-10-12T01:15:27.381Z,18.632202
2018-10-12T01:15:56.882Z,18.551636
2018-10-12T01:16:26.367Z,18.511353
2018-10-12T01:16:55.856Z,18.450928
2018-10-12T01:17:25.361Z,18.440857
2018-10-12T01:17:54.861Z,18.450928
2018-10-12T01:18:24.352Z,18.48114
2018-10-12T01:18:53.845Z,18.501282
2018-10-12T01:19:23.424Z,18.501282
2018-10-12T01:19:52.869Z,18.521423
2018-10-12T01:20:22.360Z,18.521423
2018-10-12T01:20:52.892Z,18.471069
2018-10-12T01:21:22.378Z,18.450928
2018-10-12T01:21:51.872Z,18.440857
2018-10-12T01:22:21.389Z,18.440857
2018-10-12T01:22:50.878Z,18.440857
2018-10-12T01:23:20.372Z,18.450928
2018-10-12T01:23:49.864Z,18.450928
2018-10-12T01:24:19.358Z,18.360291
2018-10-12T01:24:48.849Z,18.330078
2018-10-12T01:25:18.350Z,18.299866
2018-10-12T01:25:47.898Z,18.320007
2018-10-12T01:26:18.393Z,18.199158
2018-10-12T01:26:47.883Z,18.138733
2018-10-12T01:27:17.370Z,18.168945
2018-10-12T01:27:46.862Z,18.179016
2018-10-12T01:28:16.350Z,18.148804
2018-10-12T01:28:45.846Z,18.108521
2018-10-12T01:29:15.337Z,18.09845
2018-10-12T01:29:44.829Z,18.118591
2018-10-12T01:30:14.333Z,18.179016
2018-10-12T01:30:44.819Z,18.249512
2018-10-12T01:31:14.360Z,18.289795
2018-10-12T01:31:43.863Z,18.22937
2018-10-12T01:32:13.358Z,18.259583
2018-10-12T01:32:42.850Z,18.209229
2018-10-12T01:33:12.351Z,18.22937
2018-10-12T01:33:41.871Z,18.249512
2018-10-12T01:34:11.359Z,18.289795
2018-10-12T01:34:40.840Z,18.299866
2018-10-12T01:35:10.336Z,18.360291
2018-10-12T01:35:39.824Z,18.410645
2018-10-12T01:36:09.373Z,18.410645
2018-10-12T01:36:38.868Z,18.360291
2018-10-12T01:37:08.364Z,18.330078
2018-10-12T01:37:37.849Z,18.320007
2018-10-12T01:38:07.346Z,18.360291
2018-10-12T01:38:36.859Z,18.35022
2018-10-12T01:39:06.351Z,18.35022
2018-10-12T01:39:35.841Z,18.320007
2018-10-12T01:40:05.332Z,18.330078
2018-10-12T01:40:34.836Z,18.320007
2018-10-12T01:41:04.338Z,18.360291
2018-10-12T01:41:33.872Z,18.320007
2018-10-12T01:42:03.358Z,18.330078
2018-10-12T01:42:32.851Z,18.330078
2018-10-12T01:43:02.340Z,18.320007
2018-10-12T01:43:31.832Z,18.35022
2018-10-12T01:44:01.324Z,18.390503
2018-10-12T01:44:31.814Z,18.360291
2018-10-12T01:45:01.308Z,18.330078
2018-10-12T01:45:30.807Z,18.320007
2018-10-12T01:46:00.311Z,18.330078
2018-10-12T01:46:29.852Z,18.320007
2018-10-12T01:46:59.344Z,18.320007
2018-10-12T01:47:28.865Z,18.269653
2018-10-12T01:47:58.361Z,18.108521
2018-10-12T01:48:27.845Z,18.048096
2018-10-12T01:48:57.336Z,18.027954
2018-10-12T01:49:26.836Z,18.017883
2018-10-12T01:49:56.332Z,17.997742
2018-10-12T01:50:25.833Z,18.068237
2018-10-12T01:50:55.334Z,18.108521
2018-10-12T01:51:24.818Z,18.148804
2018-10-12T01:51:54.386Z,18.138733
2018-10-12T01:52:23.905Z,18.168945
2018-10-12T01:52:53.398Z,18.209229
2018-10-12T01:53:22.887Z,18.22937
2018-10-12T01:53:52.376Z,18.22937
2018-10-12T01:54:21.867Z,18.179016
2018-10-12T01:54:51.355Z,18.199158
2018-10-12T01:55:20.852Z,18.148804
2018-10-12T01:55:51.342Z,18.148804
2018-10-12T01:56:20.831Z,18.138733
2018-10-12T01:56:50.379Z,18.168945
2018-10-12T01:57:19.879Z,18.179016
2018-10-12T01:57:49.395Z,18.168945
2018-10-12T01:58:18.889Z,18.118591
2018-10-12T01:58:48.376Z,18.118591
2018-10-12T01:59:17.892Z,18.048096
2018-10-12T01:59:47.401Z,18.027954
2018-10-12T02:00:16.909Z,18.017883
2018-10-12T02:00:46.402Z,18.027954
2018-10-12T02:01:15.895Z,18.09845
2018-10-12T02:01:46.396Z,18.09845
2018-10-12T02:02:15.940Z,18.09845
2018-10-12T02:02:45.428Z,18.068237
2018-10-12T02:03:14.926Z,18.048096
2018-10-12T02:03:44.430Z,18.017883
2018-10-12T02:04:13.922Z,17.997742
2018-10-12T02:04:43.405Z,18.027954
2018-10-12T02:05:12.893Z,17.957458
2018-10-12T02:05:42.386Z,17.947388
2018-10-12T02:06:11.874Z,17.917175
2018-10-12T02:06:41.363Z,17.957458
2018-10-12T02:07:10.908Z,17.987671
2018-10-12T02:07:40.415Z,18.048096
2018-10-12T02:08:09.934Z,18.027954
2018-10-12T02:08:39.437Z,18.017883
2018-10-12T02:09:08.930Z,17.866821
2018-10-12T02:09:38.482Z,17.766113
2018-10-12T02:10:08.022Z,17.655334
2018-10-12T02:10:37.467Z,17.564697
2018-10-12T02:11:06.962Z,17.514343
2018-10-12T02:11:36.454Z,17.584839
2018-10-12T02:12:05.960Z,17.635193
2018-10-12T02:12:35.513Z,17.745972
2018-10-12T02:13:05.003Z,17.786255
2018-10-12T02:13:35.483Z,17.816467
2018-10-12T02:14:04.983Z,17.886963
2018-10-12T02:14:34.473Z,17.886963
2018-10-12T02:15:03.966Z,17.866821
2018-10-12T02:15:33.463Z,17.85675
2018-10-12T02:16:02.949Z,17.886963
2018-10-12T02:16:32.446Z,17.886963
2018-10-12T02:17:01.944Z,17.897034
2018-10-12T02:17:31.490Z,17.886963
2018-10-12T02:18:00.984Z,17.917175
2018-10-12T02:18:30.473Z,17.957458
2018-10-12T02:18:59.970Z,17.997742
2018-10-12T02:19:29.455Z,17.987671
2018-10-12T02:19:58.956Z,17.957458
2018-10-12T02:20:28.444Z,17.927246
2018-10-12T02:20:57.939Z,17.85675
2018-10-12T02:21:27.427Z,17.705688
2018-10-12T02:21:56.923Z,17.615051
2018-10-12T02:22:26.415Z,17.554626
2018-10-12T02:22:55.985Z,17.403564
2018-10-12T02:23:25.522Z,17.373352
2018-10-12T02:23:55.027Z,17.192078
2018-10-12T02:24:24.518Z,17.161865
2018-10-12T02:24:54.995Z,17.030945
2018-10-12T02:25:24.486Z,17.010803
2018-10-12T02:25:53.977Z,16.930237
2018-10-12T02:26:23.481Z,16.910095
2018-10-12T02:26:52.975Z,16.97052
2018-10-12T02:27:22.533Z,17.081299
2018-10-12T02:27:52.072Z,17.212219
2018-10-12T02:28:21.603Z,17.262573
2018-10-12T02:28:51.101Z,17.383423
2018-10-12T02:29:20.583Z,17.463989
2018-10-12T02:29:50.103Z,17.494202
2018-10-12T02:30:19.607Z,17.544556
2018-10-12T02:30:49.096Z,17.544556
2018-10-12T02:31:18.590Z,17.524414
2018-10-12T02:31:48.081Z,17.484131
2018-10-12T02:32:17.573Z,17.484131
2018-10-12T02:32:47.089Z,17.443848
2018-10-12T02:33:16.625Z,17.443848
2018-10-12T02:33:46.118Z,17.463989
2018-10-12T02:34:16.597Z,17.363281
2018-10-12T02:34:46.177Z,17.413635
2018-10-12T02:35:15.670Z,17.463989
2018-10-12T02:35:45.180Z,17.494202
2018-10-12T02:36:14.670Z,17.443848
2018-10-12T02:36:44.156Z,17.494202
2018-10-12T02:37:13.647Z,17.514343
2018-10-12T02:37:43.145Z,17.524414
2018-10-12T02:38:13.697Z,17.564697
2018-10-12T02:38:43.178Z,17.554626
2018-10-12T02:39:12.673Z,17.564697
2018-10-12T02:39:42.212Z,17.625122
2018-10-12T02:40:11.688Z,17.675476
2018-10-12T02:40:41.180Z,17.705688
2018-10-12T02:41:10.676Z,17.675476
2018-10-12T02:41:40.163Z,17.695618
2018-10-12T02:42:09.657Z,17.715759
2018-10-12T02:42:39.152Z,17.705688
2018-10-12T02:43:08.644Z,17.735901
2018-10-12T02:43:38.191Z,17.745972
2018-10-12T02:44:07.699Z,17.766113
2018-10-12T02:44:37.183Z,17.776184
2018-10-12T02:45:06.675Z,17.745972
2018-10-12T02:45:36.193Z,17.766113
2018-10-12T02:46:05.692Z,17.766113
2018-10-12T02:46:35.183Z,17.695618
2018-10-12T02:47:04.679Z,17.615051
2018-10-12T02:47:34.163Z,17.554626
2018-10-12T02:48:03.655Z,17.554626
2018-10-12T02:48:33.205Z,17.524414
2018-10-12T02:49:02.706Z,17.514343
2018-10-12T02:49:32.202Z,17.514343
2018-10-12T02:50:01.690Z,17.463989
2018-10-12T02:50:31.182Z,17.282715
2018-10-12T02:51:00.675Z,17.081299
2018-10-12T02:51:30.185Z,16.980591
2018-10-12T02:51:59.675Z,16.910095
2018-10-12T02:52:29.161Z,16.809387
2018-10-12T02:52:58.654Z,16.748962
2018-10-12T02:53:28.161Z,16.698608
2018-10-12T02:53:57.695Z,16.698608
2018-10-12T02:54:27.224Z,16.5979
2018-10-12T02:54:56.707Z,16.577759
2018-10-12T02:55:27.208Z,16.567688
2018-10-12T02:55:56.703Z,16.628113
2018-10-12T02:56:26.196Z,16.638184
2018-10-12T02:56:56.689Z,16.607971
2018-10-12T02:57:26.185Z,16.5979
2018-10-12T02:57:56.659Z,16.668396
2018-10-12T02:58:26.152Z,16.728821
2018-10-12T02:58:55.695Z,16.84967
2018-10-12T02:59:25.178Z,16.930237
2018-10-12T02:59:55.667Z,17.041016
2018-10-12T03:00:25.151Z,17.121582
2018-10-12T03:00:54.643Z,17.161865
2018-10-12T03:01:24.140Z,17.232361
2018-10-12T03:01:53.625Z,17.312927
2018-10-12T03:02:23.134Z,17.363281
2018-10-12T03:02:52.625Z,17.403564
2018-10-12T03:03:23.115Z,17.443848
2018-10-12T03:03:52.659Z,17.484131
2018-10-12T03:04:22.155Z,17.514343
2018-10-12T03:04:51.649Z,17.554626
2018-10-12T03:05:21.157Z,17.564697
2018-10-12T03:05:50.656Z,17.59491
2018-10-12T03:06:20.216Z,17.615051
2018-10-12T03:06:49.716Z,17.59491
2018-10-12T03:07:19.203Z,17.59491
2018-10-12T03:07:48.695Z,17.615051
2018-10-12T03:08:18.194Z,17.615051
2018-10-12T03:08:47.679Z,17.615051
2018-10-12T03:09:17.245Z,17.554626
2018-10-12T03:09:46.736Z,17.494202
2018-10-12T03:10:16.238Z,17.463989
2018-10-12T03:10:45.732Z,17.484131
2018-10-12T03:11:15.232Z,17.484131
2018-10-12T03:11:44.749Z,17.524414
2018-10-12T03:12:14.242Z,17.443848
2018-10-12T03:12:43.731Z,17.34314
2018-10-12T03:13:13.225Z,17.232361
2018-10-12T03:13:42.734Z,17.121582
2018-10-12T03:14:12.298Z,16.859741
2018-10-12T03:14:42.783Z,16.829529
2018-10-12T03:15:12.273Z,16.859741
2018-10-12T03:15:41.771Z,16.97052
2018-10-12T03:16:11.262Z,16.980591
2018-10-12T03:16:40.756Z,17.071228
2018-10-12T03:17:10.256Z,17.141724
2018-10-12T03:17:40.729Z,17.212219
2018-10-12T03:18:10.223Z,17.262573
2018-10-12T03:18:39.734Z,17.333069
2018-10-12T03:19:09.223Z,17.363281
2018-10-12T03:19:38.777Z,17.363281
2018-10-12T03:20:08.276Z,17.373352
2018-10-12T03:20:37.773Z,17.433777
2018-10-12T03:21:07.272Z,17.443848
2018-10-12T03:21:36.774Z,17.494202
2018-10-12T03:22:07.256Z,17.484131
2018-10-12T03:22:36.762Z,17.514343
2018-10-12T03:23:06.255Z,17.413635
2018-10-12T03:23:35.752Z,17.363281
2018-10-12T03:24:05.255Z,17.373352
2018-10-12T03:24:35.792Z,17.433777
2018-10-12T03:25:05.280Z,17.433777
2018-10-12T03:25:34.768Z,17.443848
2018-10-12T03:26:04.258Z,17.463989
2018-10-12T03:26:33.774Z,17.433777
2018-10-12T03:27:03.269Z,17.443848
2018-10-12T03:27:33.751Z,17.494202
2018-10-12T03:28:03.260Z,17.544556
2018-10-12T03:28:32.745Z,17.584839
2018-10-12T03:29:02.239Z,17.584839
2018-10-12T03:29:32.794Z,17.615051
2018-10-12T03:30:02.281Z,17.59491
2018-10-12T03:30:31.783Z,17.625122
2018-10-12T03:31:01.265Z,17.524414
2018-10-12T03:31:30.773Z,17.544556
2018-10-12T03:32:00.268Z,17.463989
2018-10-12T03:32:29.768Z,17.262573
2018-10-12T03:32:59.254Z,17.081299
2018-10-12T03:33:28.745Z,17.000732
2018-10-12T03:33:58.326Z,16.889954
2018-10-12T03:34:27.816Z,16.84967
2018-10-12T03:34:57.393Z,16.819458
2018-10-12T03:35:26.918Z,16.728821
2018-10-12T03:35:56.408Z,16.638184
2018-10-12T03:36:25.898Z,16.517334
2018-10-12T03:36:55.401Z,16.477051
2018-10-12T03:37:24.960Z,16.386414
2018-10-12T03:37:54.434Z,16.305847
2018-10-12T03:38:23.923Z,16.265564
2018-10-12T03:38:53.409Z,16.295776
2018-10-12T03:39:22.901Z,16.325989
2018-10-12T03:39:52.453Z,16.34613
2018-10-12T03:40:21.937Z,16.426697
2018-10-12T03:40:51.439Z,16.386414
2018-10-12T03:41:20.936Z,16.325989
2018-10-12T03:41:50.427Z,16.305847
2018-10-12T03:42:19.914Z,16.295776
2018-10-12T03:42:49.402Z,16.305847
2018-10-12T03:43:18.922Z,16.325989
2018-10-12T03:43:48.418Z,16.406555
2018-10-12T03:44:17.931Z,16.456909
2018-10-12T03:44:47.421Z,16.567688
2018-10-12T03:45:16.968Z,16.658325
2018-10-12T03:45:46.448Z,16.708679
2018-10-12T03:46:15.973Z,16.819458
2018-10-12T03:46:45.471Z,16.84967
2018-10-12T03:47:14.964Z,16.930237
2018-10-12T03:47:44.457Z,16.960449
2018-10-12T03:48:13.988Z,17.030945
2018-10-12T03:48:43.492Z,17.041016
2018-10-12T03:49:12.977Z,17.121582
2018-10-12T03:49:42.488Z,17.161865
2018-10-12T03:50:12.051Z,17.192078
2018-10-12T03:50:41.538Z,17.232361
2018-10-12T03:51:11.027Z,17.302856
2018-10-12T03:51:40.532Z,17.302856
2018-10-12T03:52:10.024Z,17.363281
2018-10-12T03:52:39.515Z,17.373352
2018-10-12T03:53:09.005Z,17.403564
2018-10-12T03:53:38.507Z,17.433777
2018-10-12T03:54:08.003Z,17.443848
2018-10-12T03:54:37.535Z,17.463989
2018-10-12T03:55:07.051Z,17.463989
2018-10-12T03:55:37.708Z,17.484131
2018-10-12T03:56:07.204Z,17.484131
2018-10-12T03:56:36.692Z,17.463989
2018-10-12T03:57:06.182Z,17.484131
2018-10-12T03:57:36.054Z,17.484131
2018-10-12T03:58:06.703Z,17.494202
2018-10-12T03:58:36.214Z,17.403564
2018-10-12T03:59:05.723Z,17.383423
2018-10-12T03:59:35.219Z,17.252502
2018-10-12T04:00:04.710Z,17.141724
2018-10-12T04:00:34.280Z,17.010803
2018-10-12T04:01:03.783Z,16.889954
2018-10-12T04:01:33.291Z,16.809387
2018-10-12T04:02:02.777Z,16.759033
2018-10-12T04:02:32.320Z,16.728821
2018-10-12T04:03:01.792Z,16.698608
2018-10-12T04:03:31.290Z,16.668396
2018-10-12T04:04:00.797Z,16.607971
2018-10-12T04:04:30.295Z,16.638184
2018-10-12T04:04:59.813Z,16.668396
2018-10-12T04:05:29.316Z,16.698608
2018-10-12T04:05:58.870Z,16.789246
2018-10-12T04:06:28.372Z,16.829529
2018-10-12T04:06:57.927Z,16.940308
2018-10-12T04:07:27.416Z,16.97052
2018-10-12T04:07:56.924Z,16.980591
2018-10-12T04:08:26.420Z,17.010803
2018-10-12T04:08:55.922Z,17.081299
2018-10-12T04:09:25.412Z,17.111511
2018-10-12T04:09:54.908Z,17.121582
2018-10-12T04:10:24.421Z,17.071228
2018-10-12T04:10:53.976Z,17.141724
2018-10-12T04:11:23.468Z,17.161865
2018-10-12T04:11:52.963Z,17.192078
2018-10-12T04:12:22.503Z,17.232361
2018-10-12T04:12:52.002Z,17.262573
2018-10-12T04:13:21.520Z,17.232361
2018-10-12T04:13:52.921Z,17.232361
2018-10-12T04:14:24.289Z,17.262573
2018-10-12T04:14:55.833Z,17.282715
2018-10-12T04:15:28.847Z,17.282715
2018-10-12T04:16:02.485Z,17.212219
2018-10-12T04:16:34.305Z,17.141724
2018-10-12T04:17:06.661Z,17.121582
2018-10-12T04:17:38.810Z,17.151794
2018-10-12T04:18:09.946Z,17.182007
2018-10-12T04:18:41.366Z,17.232361
2018-10-12T04:19:13.382Z,17.282715
2018-10-12T04:19:46.088Z,17.302856
2018-10-12T04:20:18.858Z,17.302856
2018-10-12T04:20:52.095Z,17.312927
2018-10-12T04:21:27.844Z,17.312927
2018-10-12T04:22:01.004Z,17.363281
2018-10-12T04:22:35.341Z,17.383423
2018-10-12T04:23:08.487Z,17.403564
2018-10-12T04:23:41.891Z,17.413635
2018-10-12T04:24:14.206Z,17.383423
2018-10-12T04:24:44.455Z,17.302856
2018-10-12T04:25:15.035Z,17.192078
2018-10-12T04:25:45.181Z,17.151794
2018-10-12T04:26:17.164Z,17.111511
2018-10-12T04:26:47.211Z,17.111511
2018-10-12T04:27:16.619Z,17.010803
2018-10-12T04:27:46.171Z,17.041016
2018-10-12T04:28:15.915Z,17.061157
2018-10-12T04:28:46.609Z,17.081299
2018-10-12T04:29:16.487Z,17.111511
2018-10-12T04:29:46.992Z,17.141724
2018-10-12T04:30:16.624Z,17.141724
2018-10-12T04:30:47.065Z,17.141724
2018-10-12T04:31:16.716Z,17.161865
2018-10-12T04:31:46.279Z,17.161865
2018-10-12T04:32:15.809Z,17.182007
2018-10-12T04:32:45.379Z,17.182007
2018-10-12T04:33:15.073Z,17.182007
2018-10-12T04:33:45.549Z,17.192078
2018-10-12T04:34:15.158Z,17.212219
2018-10-12T04:34:44.649Z,17.212219
2018-10-12T04:35:14.174Z,17.141724
2018-10-12T04:35:43.665Z,17.111511
2018-10-12T04:36:13.156Z,17.081299
2018-10-12T04:36:42.711Z,17.041016
2018-10-12T04:37:12.267Z,17.030945
2018-10-12T04:37:42.566Z,16.97052
2018-10-12T04:38:15.362Z,16.859741
2018-10-12T04:38:45.823Z,16.910095
2018-10-12T04:39:17.270Z,16.97052
2018-10-12T04:39:48.098Z,17.000732
2018-10-12T04:40:18.860Z,16.910095
2018-10-12T04:40:50.705Z,16.728821
2018-10-12T04:41:21.820Z,16.577759
2018-10-12T04:41:52.155Z,16.497192
2018-10-12T04:42:22.306Z,16.416626
2018-10-12T04:42:52.713Z,16.34613
2018-10-12T04:43:22.199Z,16.295776
2018-10-12T04:43:51.688Z,16.235352
2018-10-12T04:44:21.193Z,16.205139
2018-10-12T04:44:50.688Z,16.245422
2018-10-12T04:45:20.182Z,16.265564
2018-10-12T04:45:49.681Z,16.275635
2018-10-12T04:46:19.189Z,16.325989
2018-10-12T04:46:48.777Z,16.376343
2018-10-12T04:47:18.299Z,16.376343
2018-10-12T04:47:47.761Z,16.34613
2018-10-12T04:48:17.275Z,16.34613
2018-10-12T04:48:46.787Z,16.34613
2018-10-12T04:49:16.298Z,16.386414
2018-10-12T04:49:45.782Z,16.487122
2018-10-12T04:50:15.281Z,16.5979
2018-10-12T04:50:44.783Z,16.658325
2018-10-12T04:51:14.283Z,16.728821
2018-10-12T04:51:43.840Z,16.779175
2018-10-12T04:52:13.327Z,16.789246
2018-10-12T04:52:42.826Z,16.819458
2018-10-12T04:53:13.318Z,16.84967
2018-10-12T04:53:42.820Z,16.879883
2018-10-12T04:54:12.303Z,16.889954
2018-10-12T04:54:41.786Z,16.930237
2018-10-12T04:55:12.275Z,16.910095
2018-10-12T04:55:41.765Z,16.940308
2018-10-12T04:56:11.249Z,16.940308
2018-10-12T04:56:40.795Z,16.930237
2018-10-12T04:57:10.295Z,16.940308
2018-10-12T04:57:39.781Z,16.960449
2018-10-12T04:58:09.311Z,16.980591
2018-10-12T04:58:38.804Z,17.030945
2018-10-12T04:59:08.301Z,17.041016
2018-10-12T04:59:37.790Z,17.061157
2018-10-12T05:00:07.283Z,17.010803
2018-10-12T05:00:36.829Z,17.000732
2018-10-12T05:01:06.335Z,17.010803
2018-10-12T05:01:35.793Z,17.030945
2018-10-12T05:02:05.341Z,17.061157
2018-10-12T05:02:34.837Z,17.071228
2018-10-12T05:03:04.327Z,17.121582
2018-10-12T05:03:33.817Z,17.111511
2018-10-12T05:04:03.367Z,17.121582
2018-10-12T05:04:32.872Z,17.041016
2018-10-12T05:05:02.355Z,16.940308
2018-10-12T05:05:31.848Z,16.829529
2018-10-12T05:06:01.363Z,16.829529
2018-10-12T05:06:30.859Z,16.84967
2018-10-12T05:07:00.401Z,16.829529
2018-10-12T05:07:30.933Z,16.84967
2018-10-12T05:08:00.396Z,16.84967
2018-10-12T05:08:29.889Z,16.84967
2018-10-12T05:08:59.384Z,16.84967
2018-10-12T05:09:28.884Z,16.809387
2018-10-12T05:09:58.377Z,16.819458
2018-10-12T05:10:27.884Z,16.829529
2018-10-12T05:10:57.386Z,16.84967
2018-10-12T05:11:26.883Z,16.910095
2018-10-12T05:11:56.442Z,16.930237
2018-10-12T05:12:26.029Z,16.980591
2018-10-12T05:12:55.523Z,16.97052
2018-10-12T05:13:25.022Z,16.940308
2018-10-12T05:13:54.513Z,16.910095
2018-10-12T05:14:24.019Z,16.940308
2018-10-12T05:14:53.502Z,16.960449
2018-10-12T05:15:22.999Z,16.97052
2018-10-12T05:15:52.518Z,17.000732
2018-10-12T05:16:22.024Z,17.030945
2018-10-12T05:16:51.522Z,17.030945
2018-10-12T05:17:21.071Z,17.081299
2018-10-12T05:17:50.601Z,17.081299
2018-10-12T05:18:20.152Z,17.081299
2018-10-12T05:18:49.649Z,17.141724
2018-10-12T05:19:19.133Z,17.161865
2018-10-12T05:19:48.659Z,17.121582
2018-10-12T05:20:18.152Z,17.111511
2018-10-12T05:20:47.654Z,17.111511
2018-10-12T05:21:17.154Z,17.141724
2018-10-12T05:21:46.646Z,17.121582
2018-10-12T05:22:16.163Z,17.141724
2018-10-12T05:22:45.699Z,17.151794
2018-10-12T05:23:15.183Z,17.182007
2018-10-12T05:23:44.679Z,17.192078
2018-10-12T05:24:14.182Z,17.192078
2018-10-12T05:24:43.680Z,17.121582
2018-10-12T05:25:13.181Z,17.000732
2018-10-12T05:25:42.678Z,16.940308
2018-10-12T05:26:12.171Z,16.940308
2018-10-12T05:26:41.666Z,17.010803
2018-10-12T05:27:11.158Z,17.030945
2018-10-12T05:27:40.725Z,17.041016
2018-10-12T05:28:10.224Z,17.071228
2018-10-12T05:28:39.718Z,17.111511
2018-10-12T05:29:09.224Z,17.111511
2018-10-12T05:29:38.709Z,17.161865
2018-10-12T05:30:08.246Z,17.161865
2018-10-12T05:30:37.695Z,17.182007
2018-10-12T05:31:07.184Z,17.182007
2018-10-12T05:31:36.716Z,17.161865
2018-10-12T05:32:06.207Z,17.161865
2018-10-12T05:32:35.708Z,17.151794
2018-10-12T05:33:05.251Z,17.081299
2018-10-12T05:33:34.742Z,17.081299
2018-10-12T05:34:04.234Z,17.111511
2018-10-12T05:34:33.729Z,17.071228
2018-10-12T05:35:03.213Z,17.041016
2018-10-12T05:35:32.742Z,16.960449
2018-10-12T05:36:02.309Z,16.97052
2018-10-12T05:36:31.751Z,16.889954
2018-10-12T05:37:02.218Z,16.859741
2018-10-12T05:37:31.708Z,16.819458
2018-10-12T05:38:01.251Z,16.84967
2018-10-12T05:38:30.748Z,16.879883
2018-10-12T05:39:00.247Z,16.879883
2018-10-12T05:39:29.732Z,16.879883